Aeroporto :
LOGIN :

Iscrizione | Disclaimer

   EN    FR    IT 

 










Sommario :    VFR   VFR Marginale   IFR   IFR Intensivo   IFR Molto Intensivo
Visibilità : 
Base nubi : 
>= 8 km
>= 3000ft
5 / 8 km
1000 / 3000 ft
1500m / 5 km
500 / 1000 ft
800 / 1500m
200 / 500 ft
< 800m
< 200 ft
Simboli :   Temporali  Nebbia  Neve Forte  Precipitazioni Forti  Vento > 20 kt
SIGMETs :   Varie  Temporali  Ghiacco  Turbolenza  Onda orograficha  Ceneri Vulcaniche







- Altitudine del aeroporto : 681 ft
- Codice IATA : LBA
- Carte del aeroporto


EGNM - Leeds Bradford

ULTIMO METAR :
  • 161320Z 23010KT 200V270 9999 FEW032 11/04 Q1018

METARs OBSOLETI :
  • 161250Z 23011KT 190V270 9999 SCT032 11/04 Q1018
  • 161220Z 23012KT 190V260 9999 FEW016 SCT037 10/04 Q1018
  • 161150Z 23012KT 200V270 9999 FEW016 SCT037 10/04 Q1018
  • 161120Z 23012KT 190V280 9999 FEW016 SCT037 10/04 Q1018
  • 161050Z 22008KT 170V270 9999 FEW016 SCT037 10/05 Q1018

TAF TAF EGNM
Valido dal 16 a 12 ore il 17 a 12 ore UTC


161102Z 1612/1712 21008KT 9999 FEW015
BECMG 1621/1624 BKN012
PROB40 1700/1709 15010KT 2000 BR BKN002
BECMG 1708/1711 SCT015
ATIS : +44 113 250 9696 (x2489)
Nessun NOTAM noto per questo aeroporto.



MetMap, La meteo Aeronautica in un colpo d'occhio ! - Copyright ORBIFLY Dicembre 2007 - Disclaimer

ORBIFLY MET'MAP TEAM :

Programmazione e sviluppo : Alexandra Zaïnal
Concezione e sviluppo : Baudouin d'Aumeries
Co-Programmazione e sviluppo : Marc-Olivier Méhu
Supporto tecnico e logistico : Manuel Goepfert
Aiuto per la traduzione : Arnaldo La Scala

Contatto : metmap@orbifly.com




FONTI E CREDITI :

   NOAA